createdAt,value
2023-01-09T00:01:44.103Z,97209.75
2023-01-09T00:04:52.324Z,97209.22
2023-01-09T00:07:58.571Z,97196.56
2023-01-09T00:11:04.190Z,97204.84
2023-01-09T00:14:11.201Z,97196.56
2023-01-09T00:17:16.666Z,97204.72
2023-01-09T00:20:25.812Z,97195.41
2023-01-09T00:23:31.182Z,97206.16
2023-01-09T00:26:38.002Z,97202.16
2023-01-09T00:29:47.838Z,97193.06
2023-01-09T00:32:54.220Z,97187.31
2023-01-09T00:36:03.251Z,97183.22
2023-01-09T00:39:09.516Z,97186.09
2023-01-09T00:42:22.261Z,97188.09
2023-01-09T00:45:33.624Z,97194.25
2023-01-09T00:48:43.860Z,97209.06
2023-01-09T00:51:54.282Z,97201.44
2023-01-09T00:55:03.127Z,97185.16
2023-01-09T00:58:10.226Z,97190.38
2023-01-09T01:01:16.229Z,97180.97
2023-01-09T01:04:38.563Z,97170.59
2023-01-09T01:07:46.964Z,97175.09
2023-01-09T01:10:53.286Z,97174.44
2023-01-09T01:13:59.736Z,97170.28
2023-01-09T01:17:06.614Z,97151.06
2023-01-09T01:20:17.789Z,97157.97
2023-01-09T01:23:26.875Z,97137.09
2023-01-09T01:26:32.244Z,97150.88
2023-01-09T01:29:38.475Z,97141.38
2023-01-09T01:32:44.395Z,97164.97
2023-01-09T01:35:50.649Z,97164.13
2023-01-09T01:38:59.087Z,97168.41
2023-01-09T01:42:07.152Z,97162.97
2023-01-09T01:45:19.668Z,97143.03
2023-01-09T01:48:32.514Z,97154.03
2023-01-09T01:51:46.124Z,97143.78
2023-01-09T01:54:56.575Z,97123.72
2023-01-09T01:58:10.750Z,97137.72
2023-01-09T02:01:18.743Z,97141.06
2023-01-09T02:04:24.569Z,97142.94
2023-01-09T02:07:31.523Z,97147.31
2023-01-09T02:10:42.586Z,97142.19
2023-01-09T02:13:50.024Z,97142.31
2023-01-09T02:17:08.772Z,97139.91
2023-01-09T02:20:41.455Z,97147.31
2023-01-09T02:24:13.584Z,97140.31
2023-01-09T02:28:05.335Z,97135.41
2023-01-09T02:31:25.203Z,97138.13
2023-01-09T02:34:49.592Z,97148.13
2023-01-09T02:38:13.320Z,97146.66
2023-01-09T02:41:31.125Z,97127.00
2023-01-09T02:44:38.709Z,97129.72
2023-01-09T02:47:50.406Z,97119.28
2023-01-09T02:51:16.214Z,97104.56
2023-01-09T02:54:48.484Z,97106.34
2023-01-09T02:58:12.509Z,97098.63
2023-01-09T03:01:35.217Z,97100.66
2023-01-09T03:05:00.979Z,97100.47
2023-01-09T03:08:16.316Z,97105.88
2023-01-09T03:11:22.245Z,97109.63
2023-01-09T03:14:30.916Z,97107.22
2023-01-09T03:17:46.246Z,97096.06
2023-01-09T03:20:58.242Z,97084.78
2023-01-09T03:24:06.379Z,97086.84
2023-01-09T03:27:12.866Z,97070.78
2023-01-09T03:30:19.227Z,97071.59
2023-01-09T03:33:25.516Z,97053.44
2023-01-09T03:36:34.189Z,97026.41
2023-01-09T03:39:40.956Z,97043.84
2023-01-09T03:42:46.275Z,97038.00
2023-01-09T03:45:58.337Z,97046.78
2023-01-09T03:49:11.743Z,97033.94
2023-01-09T03:52:23.651Z,97029.63
2023-01-09T03:55:29.047Z,97025.44
2023-01-09T03:58:35.283Z,97025.38
2023-01-09T04:01:40.851Z,97021.09
2023-01-09T04:04:47.404Z,97020.44
2023-01-09T04:07:55.596Z,97019.59
2023-01-09T04:11:02.150Z,97005.81
2023-01-09T04:14:07.530Z,97011.03
2023-01-09T04:17:13.772Z,97011.88
2023-01-09T04:20:19.702Z,97002.38
2023-01-09T04:23:28.833Z,96998.31
2023-01-09T04:26:34.228Z,96993.41
2023-01-09T04:29:40.529Z,96991.19
2023-01-09T04:32:46.241Z,96984.50
2023-01-09T04:35:52.617Z,96978.66
2023-01-09T04:39:00.797Z,96976.34
2023-01-09T04:42:07.434Z,96971.31
2023-01-09T04:45:15.778Z,96971.63
2023-01-09T04:48:22.168Z,96973.59
2023-01-09T04:51:27.542Z,96975.28
2023-01-09T04:54:37.096Z,96971.72
2023-01-09T04:57:42.481Z,96967.22
2023-01-09T05:00:48.779Z,96962.97
2023-01-09T05:03:54.712Z,96963.81
2023-01-09T05:07:00.974Z,96956.72
2023-01-09T05:10:12.587Z,96953.09
2023-01-09T05:13:18.786Z,96949.34
2023-01-09T05:16:25.162Z,96943.72
2023-01-09T05:19:31.458Z,96939.88
2023-01-09T05:22:36.847Z,96944.06
2023-01-09T05:25:45.871Z,96937.81
2023-01-09T05:28:51.240Z,96935.84
2023-01-09T05:31:57.493Z,96927.06
2023-01-09T05:35:03.051Z,96924.28
2023-01-09T05:38:09.276Z,96910.50
2023-01-09T05:41:17.484Z,96919.38
2023-01-09T05:44:23.800Z,96908.75
2023-01-09T05:47:29.188Z,96909.47
2023-01-09T05:50:35.515Z,96899.06
2023-01-09T05:53:41.109Z,96909.59
2023-01-09T05:56:50.084Z,96905.44
2023-01-09T05:59:55.523Z,96897.59
2023-01-09T06:03:02.349Z,96902.59
2023-01-09T06:06:08.214Z,96905.94
2023-01-09T06:09:14.750Z,96903.03
2023-01-09T06:12:23.088Z,96899.06
2023-01-09T06:15:29.409Z,96902.31
2023-01-09T06:18:34.724Z,96903.94
2023-01-09T06:21:41.171Z,96894.28
2023-01-09T06:24:46.579Z,96901.78
2023-01-09T06:27:55.667Z,96894.69
2023-01-09T06:31:01.118Z,96893.00
2023-01-09T06:34:07.530Z,96894.78
2023-01-09T06:37:13.722Z,96900.94
2023-01-09T06:40:21.393Z,96890.31
2023-01-09T06:43:29.724Z,96896.97
2023-01-09T06:46:35.977Z,96900.31
2023-01-09T06:49:41.449Z,96891.34
2023-01-09T06:52:47.664Z,96896.34
2023-01-09T06:55:53.164Z,96894.47
2023-01-09T06:59:02.198Z,96896.16
2023-01-09T07:02:07.624Z,96900.53
2023-01-09T07:05:14.560Z,96910.97
2023-01-09T07:08:20.123Z,96767.41
2023-01-09T07:11:26.388Z,96902.63
2023-01-09T07:14:34.653Z,96900.31
2023-01-09T07:17:41.103Z,96899.50
2023-01-09T07:20:46.561Z,96909.09
2023-01-09T07:23:53.202Z,96909.69
2023-01-09T07:26:58.680Z,96905.94
2023-01-09T07:30:10.060Z,96900.53
2023-01-09T07:33:15.472Z,96907.19
2023-01-09T07:36:22.124Z,96900.41
2023-01-09T07:39:27.613Z,96896.56
2023-01-09T07:42:34.108Z,96904.38
2023-01-09T07:45:42.358Z,96898.25
2023-01-09T07:48:48.681Z,96897.06
2023-01-09T07:51:54.135Z,96893.41
2023-01-09T07:55:00.442Z,96891.13
2023-01-09T07:58:06.037Z,96884.63
2023-01-09T08:01:15.354Z,96890.25
2023-01-09T08:04:20.873Z,96890.88
2023-01-09T08:07:27.393Z,96873.31
2023-01-09T08:10:32.862Z,96874.16
2023-01-09T08:13:39.222Z,96869.03
2023-01-09T08:16:47.607Z,96860.28
2023-01-09T08:19:53.875Z,96870.91
2023-01-09T08:22:59.293Z,96869.88
2023-01-09T08:26:05.596Z,96867.78
2023-01-09T08:29:10.958Z,96861.25
2023-01-09T08:32:19.982Z,96855.47
2023-01-09T08:35:25.434Z,96865.53
2023-01-09T08:38:31.775Z,96864.59
2023-01-09T08:41:52.947Z,96864.28
2023-01-09T08:45:26.500Z,96866.81
2023-01-09T08:48:34.779Z,96866.84
2023-01-09T08:51:41.493Z,96866.16
2023-01-09T08:54:46.945Z,96862.13
2023-01-09T08:57:55.150Z,96823.31
2023-01-09T09:01:03.713Z,96862.38
2023-01-09T09:04:13.961Z,96870.22
2023-01-09T09:07:26.399Z,96854.03
2023-01-09T09:10:33.890Z,96872.03
2023-01-09T09:13:39.289Z,96855.94
2023-01-09T09:16:45.572Z,96862.84
2023-01-09T09:19:53.978Z,96869.38
2023-01-09T09:23:02.174Z,96867.13
2023-01-09T09:26:08.768Z,96844.97
2023-01-09T09:29:15.634Z,96853.56
2023-01-09T09:32:21.356Z,96858.53
2023-01-09T09:35:32.596Z,96835.94
2023-01-09T09:38:37.988Z,96835.97
2023-01-09T09:42:39.546Z,96827.19
2023-01-09T09:46:00.801Z,96827.88
2023-01-09T09:49:21.426Z,96826.44
2023-01-09T09:52:45.150Z,96825.84
2023-01-09T09:55:54.534Z,96820.97
2023-01-09T09:59:08.876Z,96824.88
2023-01-09T10:02:33.209Z,96817.47
2023-01-09T10:05:45.560Z,96815.91
2023-01-09T10:09:09.195Z,96815.16
2023-01-09T10:12:32.389Z,96814.16
2023-01-09T10:15:54.353Z,96805.44
2023-01-09T10:19:24.385Z,96767.00
2023-01-09T10:22:50.897Z,96806.59
2023-01-09T10:26:08.739Z,96802.47
2023-01-09T10:29:44.804Z,96798.72
2023-01-09T10:33:14.455Z,96805.88
2023-01-09T10:37:01.917Z,96804.56
2023-01-09T10:40:28.764Z,96803.78
2023-01-09T10:43:49.591Z,96801.19
2023-01-09T10:46:59.555Z,96796.50
2023-01-09T10:50:24.289Z,96789.75
2023-01-09T10:53:39.164Z,96791.84
2023-01-09T10:56:57.618Z,96783.69
2023-01-09T11:00:07.762Z,96790.78
2023-01-09T11:03:16.727Z,96785.25
2023-01-09T11:06:33.065Z,96783.31
2023-01-09T11:10:02.885Z,96785.00
2023-01-09T11:13:23.147Z,96783.75
2023-01-09T11:16:32.249Z,96785.53
2023-01-09T11:19:37.870Z,96792.59
2023-01-09T11:22:48.307Z,96787.31
2023-01-09T11:25:57.344Z,96786.63
2023-01-09T11:29:14.900Z,96787.63
2023-01-09T11:32:36.034Z,96785.25
2023-01-09T11:35:52.708Z,96783.84
2023-01-09T11:39:03.029Z,96784.13
2023-01-09T11:42:43.412Z,96787.72
2023-01-09T11:46:00.975Z,96787.03
2023-01-09T11:49:26.321Z,96790.19
2023-01-09T11:52:31.735Z,96793.47
2023-01-09T11:55:42.891Z,96789.31
2023-01-09T11:58:48.697Z,96788.75
2023-01-09T12:02:31.244Z,96789.84
2023-01-09T12:05:58.165Z,96778.22
2023-01-09T12:09:09.399Z,96785.56
2023-01-09T12:12:33.526Z,96781.00
2023-01-09T12:15:58.888Z,96785.44
2023-01-09T12:19:30.059Z,96778.25
2023-01-09T12:22:52.439Z,96773.56
2023-01-09T12:26:19.503Z,96766.38
2023-01-09T12:30:07.862Z,96758.94
2023-01-09T12:33:35.543Z,96758.41
2023-01-09T12:37:14.062Z,96754.53
2023-01-09T12:40:53.909Z,96754.25
2023-01-09T12:44:35.976Z,96754.53
2023-01-09T12:47:49.843Z,96752.31
2023-01-09T12:51:28.863Z,96749.00
2023-01-09T12:54:46.330Z,96742.66
2023-01-09T12:58:03.271Z,96744.59
2023-01-09T13:01:18.437Z,96745.72
2023-01-09T13:04:35.139Z,96746.28
2023-01-09T13:07:49.777Z,96750.84
2023-01-09T13:11:18.841Z,96751.84
2023-01-09T13:14:49.201Z,96750.44
2023-01-09T13:18:03.146Z,96767.44
2023-01-09T13:21:09.616Z,96781.53
2023-01-09T13:24:27.961Z,96714.25
2023-01-09T13:27:42.772Z,96789.44
2023-01-09T13:31:28.661Z,96792.59
2023-01-09T13:34:40.215Z,96793.16
2023-01-09T13:37:56.513Z,96802.06
2023-01-09T13:41:32.608Z,96800.94
2023-01-09T13:44:39.396Z,96808.91
2023-01-09T13:47:48.641Z,96812.78
2023-01-09T13:50:56.100Z,96814.16
2023-01-09T13:54:01.638Z,96827.66
2023-01-09T13:57:31.510Z,96821.84
2023-01-09T14:00:59.839Z,96821.00
2023-01-09T14:04:48.565Z,96831.78
2023-01-09T14:08:10.533Z,96119.03
2023-01-09T14:11:31.161Z,96829.50
2023-01-09T14:14:43.652Z,96841.66
2023-01-09T14:17:50.100Z,96853.16
2023-01-09T14:21:04.484Z,96850.34
2023-01-09T14:24:22.854Z,96860.19
2023-01-09T14:28:12.403Z,96868.44
2023-01-09T14:31:35.172Z,96885.25
2023-01-09T14:34:43.985Z,96875.78
2023-01-09T14:38:25.476Z,96865.94
2023-01-09T14:41:57.061Z,96880.66
2023-01-09T14:45:10.639Z,96900.56
2023-01-09T14:48:19.608Z,96804.59
2023-01-09T14:51:32.419Z,96881.75
2023-01-09T14:54:46.748Z,96884.44
2023-01-09T14:57:55.215Z,96883.69
2023-01-09T15:01:07.560Z,96896.81
2023-01-09T15:04:32.548Z,96894.44
2023-01-09T15:07:47.268Z,96907.28
2023-01-09T15:10:59.645Z,96911.59
2023-01-09T15:14:05.611Z,96907.44
2023-01-09T15:17:25.466Z,96910.69
2023-01-09T15:20:35.942Z,96908.75
2023-01-09T15:23:42.439Z,96911.97
2023-01-09T15:26:57.412Z,96918.78
2023-01-09T15:30:21.648Z,96925.69
2023-01-09T15:33:28.078Z,96938.34
2023-01-09T15:36:34.815Z,96949.16
2023-01-09T15:39:41.131Z,96957.84
2023-01-09T15:43:01.270Z,96967.63
2023-01-09T15:46:07.015Z,96959.88
2023-01-09T15:49:17.110Z,96954.28
2023-01-09T15:52:25.411Z,96963.09
2023-01-09T15:55:38.726Z,96970.13
2023-01-09T15:58:49.890Z,96971.09
2023-01-09T16:02:15.755Z,96976.09
2023-01-09T16:05:23.599Z,96971.44
2023-01-09T16:08:35.121Z,96967.63
2023-01-09T16:11:42.349Z,96969.09
2023-01-09T16:14:57.366Z,96966.31
2023-01-09T16:18:10.581Z,96979.06
2023-01-09T16:21:38.049Z,96983.97
2023-01-09T16:24:45.197Z,96981.72
2023-01-09T16:28:22.147Z,96986.94
2023-01-09T16:31:33.808Z,96982.88
2023-01-09T16:34:47.769Z,96998.84
2023-01-09T16:37:53.201Z,96995.75
2023-01-09T16:41:24.787Z,97014.56
2023-01-09T16:44:30.234Z,97017.06
2023-01-09T16:47:39.256Z,97007.91
2023-01-09T16:50:45.743Z,97011.47
2023-01-09T16:53:53.350Z,97012.91
2023-01-09T16:56:59.378Z,97019.53
2023-01-09T17:00:07.601Z,97026.44
2023-01-09T17:03:17.983Z,97025.13
2023-01-09T17:06:31.304Z,97027.63
2023-01-09T17:09:37.860Z,97030.72
2023-01-09T17:12:46.889Z,97028.53
2023-01-09T17:15:53.984Z,96965.72
2023-01-09T17:19:03.004Z,97038.38
2023-01-09T17:22:08.769Z,97047.63
2023-01-09T17:25:34.092Z,97048.69
2023-01-09T17:28:40.347Z,97057.19
2023-01-09T17:31:46.844Z,97067.94
2023-01-09T17:35:02.536Z,97059.47
2023-01-09T17:38:09.437Z,97070.91
2023-01-09T17:41:16.180Z,97072.72
2023-01-09T17:44:22.698Z,97071.06
2023-01-09T17:47:28.131Z,97082.50
2023-01-09T17:50:37.250Z,97090.13
2023-01-09T17:53:42.709Z,97097.50
2023-01-09T17:56:54.464Z,97097.03
2023-01-09T17:59:59.961Z,97091.78
2023-01-09T18:03:08.110Z,97107.97
2023-01-09T18:06:18.611Z,97104.41
2023-01-09T18:09:25.132Z,97100.59
2023-01-09T18:12:30.520Z,97105.59
2023-01-09T18:15:37.525Z,97102.03
2023-01-09T18:18:45.173Z,97090.84
2023-01-09T18:21:54.333Z,97092.97
2023-01-09T18:24:59.741Z,97092.25
2023-01-09T18:28:06.108Z,97097.97
2023-01-09T18:31:11.780Z,97102.38
2023-01-09T18:34:18.109Z,97103.44
2023-01-09T18:37:27.144Z,97092.97
2023-01-09T18:40:33.385Z,97110.22
2023-01-09T18:43:38.765Z,97119.59
2023-01-09T18:46:47.228Z,97120.56
2023-01-09T18:49:52.546Z,97134.00
2023-01-09T18:53:01.529Z,97132.47
2023-01-09T18:56:08.530Z,97130.56
2023-01-09T18:59:15.034Z,97143.56
2023-01-09T19:02:24.678Z,97141.03
2023-01-09T19:05:31.198Z,97134.75
2023-01-09T19:08:40.368Z,97145.78
2023-01-09T19:11:47.711Z,97139.97
2023-01-09T19:14:53.333Z,97144.13
2023-01-09T19:17:59.601Z,97137.56
2023-01-09T19:21:05.766Z,97136.00
2023-01-09T19:24:15.010Z,97138.50
2023-01-09T19:27:20.434Z,97143.88
2023-01-09T19:30:27.273Z,97148.66
2023-01-09T19:33:32.659Z,97144.34
2023-01-09T19:36:39.225Z,97152.94
2023-01-09T19:39:47.781Z,97149.81
2023-01-09T19:42:56.843Z,97154.56
2023-01-09T19:46:02.736Z,97157.53
2023-01-09T19:49:09.324Z,97157.38
2023-01-09T19:52:14.924Z,97156.63
2023-01-09T19:55:24.712Z,97159.03
2023-01-09T19:58:30.103Z,97164.19
2023-01-09T20:01:40.087Z,97136.72
2023-01-09T20:04:46.961Z,97157.59
2023-01-09T20:07:57.875Z,97162.94
2023-01-09T20:11:09.855Z,97169.59
2023-01-09T20:14:18.863Z,97181.34
2023-01-09T20:17:24.293Z,97185.13
2023-01-09T20:20:30.600Z,97187.25
2023-01-09T20:23:37.912Z,97182.00
2023-01-09T20:26:50.272Z,97195.28
2023-01-09T20:29:55.952Z,97182.81
2023-01-09T20:33:02.777Z,97182.81
2023-01-09T20:36:09.750Z,97185.56
2023-01-09T20:39:16.305Z,97178.94
2023-01-09T20:42:24.570Z,97182.63
2023-01-09T20:45:31.014Z,97188.06
2023-01-09T20:48:36.696Z,97185.66
2023-01-09T20:51:46.983Z,97187.69
2023-01-09T20:54:52.734Z,97191.88
2023-01-09T20:58:02.251Z,97190.09
2023-01-09T21:01:10.178Z,97193.78
2023-01-09T21:04:18.190Z,97196.69
2023-01-09T21:07:23.723Z,97193.25
2023-01-09T21:10:29.980Z,97201.75
2023-01-09T21:13:38.500Z,97205.53
2023-01-09T21:16:53.696Z,97196.72
2023-01-09T21:20:00.175Z,97210.78
2023-01-09T21:23:06.351Z,97216.00
2023-01-09T21:26:13.559Z,97220.06
2023-01-09T21:29:22.725Z,97219.84
2023-01-09T21:32:28.254Z,97218.91
2023-01-09T21:35:35.298Z,97220.34
2023-01-09T21:38:41.536Z,97222.25
2023-01-09T21:42:03.535Z,97241.28
2023-01-09T21:45:33.291Z,97237.31
2023-01-09T21:48:40.538Z,97249.69
2023-01-09T21:51:46.679Z,97254.72
2023-01-09T21:54:53.402Z,97252.31
2023-01-09T21:57:59.854Z,97248.22
2023-01-09T22:01:08.935Z,97258.16
2023-01-09T22:04:18.157Z,97270.31
2023-01-09T22:07:24.547Z,97268.56
2023-01-09T22:10:29.866Z,97270.13
2023-01-09T22:13:36.144Z,97275.03
2023-01-09T22:16:44.946Z,97274.69
2023-01-09T22:19:51.374Z,97271.88
2023-01-09T22:22:56.744Z,97271.88
2023-01-09T22:26:09.325Z,97287.44
2023-01-09T22:29:16.223Z,97281.69
2023-01-09T22:32:25.575Z,97291.56
2023-01-09T22:35:31.041Z,97293.44
2023-01-09T22:38:37.670Z,97300.53
2023-01-09T22:41:43.903Z,97298.13
2023-01-09T22:44:50.125Z,97301.78
2023-01-09T22:47:58.881Z,97303.47
2023-01-09T22:51:07.000Z,97301.19
2023-01-09T22:54:12.462Z,97301.19
2023-01-09T22:57:18.783Z,97298.25
2023-01-09T23:00:24.351Z,97300.34
2023-01-09T23:03:33.441Z,97304.31
2023-01-09T23:06:38.852Z,97300.75
2023-01-09T23:09:46.154Z,97280.03
2023-01-09T23:12:51.490Z,97306.69
2023-01-09T23:15:58.648Z,97297.19
2023-01-09T23:19:10.049Z,97300.00
2023-01-09T23:22:16.738Z,97304.72
2023-01-09T23:25:22.094Z,97305.44
2023-01-09T23:28:30.789Z,97301.56
2023-01-09T23:31:37.455Z,97304.38
2023-01-09T23:34:47.547Z,97308.69
2023-01-09T23:37:52.875Z,97307.00
2023-01-09T23:41:00.465Z,97298.63
2023-01-09T23:44:03.181Z,97312.41
2023-01-09T23:47:09.444Z,97313.44
2023-01-09T23:50:17.914Z,97311.13
2023-01-09T23:53:26.414Z,97304.34
2023-01-09T23:56:34.076Z,97314.06
2023-01-09T23:59:40.381Z,97314.44
